Time;durP1;ratioP1;P1;durP2;ratioP2;P2;SDS_P1;SDS_P2;PMS_P1;PMS_P2;Temp;Humidity;BMP_temperature;BMP_pressure;BME280_temperature;BME280_humidity;BME280_pressure;Samples;Min_cycle;Max_cycle;Signal;HPM_P1;HPM_P2
2021/04/27 00:02:08;;;;;;;5.95;1.63;;;5.00;63.20;;;;;;5029686;28;20486;-45
2021/04/27 00:04:35;;;;;;;1.95;1.52;;;4.90;62.50;;;;;;5030150;28;20048;-45
2021/04/27 00:07:00;;;;;;;4.43;1.35;;;4.80;62.80;;;;;;5029768;28;20038;-43
2021/04/27 00:09:26;;;;;;;1.48;1.17;;;4.80;64.00;;;;;;5029035;28;20404;-44
2021/04/27 00:11:51;;;;;;;4.75;2.17;;;4.70;64.80;;;;;;5027610;28;20026;-45
2021/04/27 00:14:17;;;;;;;2.30;1.42;;;4.60;63.50;;;;;;5028569;28;20036;-44
2021/04/27 00:16:42;;;;;;;2.88;1.50;;;4.70;63.90;;;;;;5028578;28;20039;-47
2021/04/27 00:19:10;;;;;;;1.90;1.40;;;4.60;65.00;;;;;;5023286;28;20172;-46
2021/04/27 00:21:35;;;;;;;2.50;1.65;;;4.50;63.80;;;;;;5009995;28;20049;-45
2021/04/27 00:24:01;;;;;;;4.88;1.85;;;4.50;66.00;;;;;;5025349;28;20026;-44
2021/04/27 00:26:26;;;;;;;2.92;1.63;;;4.50;64.60;;;;;;5010223;28;20022;-44
2021/04/27 00:28:52;;;;;;;2.85;1.70;;;4.40;65.00;;;;;;5012105;28;20030;-47
2021/04/27 00:31:17;;;;;;;3.85;1.83;;;4.40;64.90;;;;;;5033021;28;20521;-43
2021/04/27 00:33:43;;;;;;;3.72;1.58;;;4.40;65.20;;;;;;5033766;28;20108;-44
2021/04/27 00:36:08;;;;;;;2.55;1.70;;;4.40;65.10;;;;;;5033522;28;20025;-44
2021/04/27 00:38:34;;;;;;;2.58;1.60;;;4.30;65.20;;;;;;5033047;28;20044;-43
2021/04/27 00:41:00;;;;;;;4.30;1.80;;;4.30;65.20;;;;;;5032473;28;20111;-45
2021/04/27 00:43:26;;;;;;;1.65;1.30;;;4.20;67.20;;;;;;5033764;28;20040;-45
2021/04/27 00:45:52;;;;;;;2.97;1.95;;;4.20;66.40;;;;;;5033283;28;20112;-46
2021/04/27 00:48:17;;;;;;;3.63;1.30;;;4.20;66.00;;;;;;5032766;28;20033;-44
2021/04/27 00:50:43;;;;;;;3.17;1.75;;;4.10;66.90;;;;;;5032211;28;20025;-44
2021/04/27 00:53:10;;;;;;;4.13;1.95;;;4.10;66.90;;;;;;5032776;28;20383;-42
2021/04/27 00:55:37;;;;;;;3.65;1.50;;;4.00;67.50;;;;;;5033542;28;20018;-44
2021/04/27 00:58:03;;;;;;;6.65;2.35;;;4.00;67.50;;;;;;5032403;28;20056;-44
2021/04/27 01:00:32;;;;;;;3.53;1.50;;;4.00;67.70;;;;;;5032964;28;20438;-43
2021/04/27 01:02:58;;;;;;;2.45;1.65;;;4.00;67.30;;;;;;5032898;28;20129;-44
2021/04/27 01:05:26;;;;;;;3.00;2.00;;;3.90;68.40;;;;;;5033079;28;20105;-43
2021/04/27 01:08:28;;;;;;;2.88;1.63;;;3.90;68.00;;;;;;5032444;28;20025;-44
2021/04/27 01:11:14;;;;;;;3.10;1.77;;;3.80;68.40;;;;;;5017689;28;20418;-45
2021/04/27 01:13:50;;;;;;;2.67;1.88;;;3.70;69.30;;;;;;5032631;28;20021;-43
2021/04/27 01:16:18;;;;;;;2.33;1.60;;;3.70;69.00;;;;;;5032771;28;20033;-45
2021/04/27 01:18:49;;;;;;;5.15;1.95;;;3.60;70.30;;;;;;5032444;28;20168;-45
2021/04/27 01:21:15;;;;;;;;;;;3.50;70.70;;;;;;5031086;28;20029;-44
2021/04/27 01:23:50;;;;;;;2.63;1.40;;;3.50;71.20;;;;;;5032781;28;20035;-45
2021/04/27 01:26:18;;;;;;;3.85;1.60;;;3.50;71.30;;;;;;5031606;28;20030;-44
2021/04/27 01:28:44;;;;;;;2.42;1.45;;;3.40;72.20;;;;;;5031942;28;20040;-44
2021/04/27 01:31:11;;;;;;;4.53;1.70;;;3.30;72.90;;;;;;5031674;28;20036;-44
2021/04/27 01:33:37;;;;;;;2.58;1.60;;;3.20;74.00;;;;;;5032601;28;20522;-46
2021/04/27 01:36:04;;;;;;;3.40;1.65;;;3.20;74.10;;;;;;5032315;28;20370;-44
2021/04/27 01:38:31;;;;;;;3.22;1.55;;;3.20;74.60;;;;;;5031924;28;20426;-44
2021/04/27 01:40:57;;;;;;;3.85;1.85;;;3.20;74.90;;;;;;5031338;28;20030;-44
2021/04/27 01:43:24;;;;;;;3.78;1.83;;;3.20;75.40;;;;;;5032361;28;20030;-44
2021/04/27 01:45:57;;;;;;;5.20;1.58;;;3.20;75.50;;;;;;5032563;28;20053;-44
2021/04/27 01:48:24;;;;;;;4.53;1.95;;;3.20;76.70;;;;;;5031958;28;20032;-44
2021/04/27 01:50:51;;;;;;;4.75;1.60;;;3.20;76.60;;;;;;5032226;28;20036;-44
2021/04/27 01:53:17;;;;;;;4.30;1.73;;;3.10;78.90;;;;;;5032356;28;20025;-44
2021/04/27 01:55:43;;;;;;;4.18;2.63;;;3.00;80.60;;;;;;5032260;28;20014;-44
2021/04/27 01:58:09;;;;;;;2.88;1.85;;;3.00;80.80;;;;;;5031445;28;20037;-43
2021/04/27 02:00:35;;;;;;;3.33;1.70;;;3.00;81.40;;;;;;5032215;28;20029;-44
2021/04/27 02:03:00;;;;;;;2.58;1.20;;;3.00;81.00;;;;;;5032163;28;20040;-45
2021/04/27 02:05:26;;;;;;;3.63;1.20;;;2.90;82.10;;;;;;5026186;28;20030;-45
2021/04/27 02:07:52;;;;;;;2.90;1.70;;;2.80;84.40;;;;;;5025896;28;20026;-44
2021/04/27 02:10:17;;;;;;;2.65;1.70;;;2.80;85.60;;;;;;5031936;28;20494;-46
2021/04/27 02:12:47;;;;;;;5.63;1.92;;;2.70;87.30;;;;;;5031780;28;20037;-44
2021/04/27 02:15:17;;;;;;;2.80;1.67;;;2.70;88.00;;;;;;5030009;28;20478;-45
2021/04/27 02:17:53;;;;;;;3.03;1.35;;;2.70;89.10;;;;;;5031545;28;20033;-44
2021/04/27 02:20:23;;;;;;;3.53;1.70;;;2.60;90.10;;;;;;5031915;28;20391;-44
2021/04/27 02:22:49;;;;;;;5.63;1.90;;;2.60;91.10;;;;;;5030686;28;20033;-45
2021/04/27 02:25:16;;;;;;;2.33;1.70;;;2.50;92.50;;;;;;5031848;28;20049;-44
2021/04/27 02:27:43;;;;;;;2.40;1.55;;;2.50;93.30;;;;;;5030926;28;20017;-44
2021/04/27 02:30:11;;;;;;;3.63;2.28;;;2.50;93.20;;;;;;5030242;28;20032;-45
2021/04/27 02:32:38;;;;;;;3.10;1.80;;;2.40;95.60;;;;;;5029892;28;20033;-44
2021/04/27 02:35:04;;;;;;;3.08;1.77;;;2.30;97.20;;;;;;5030059;28;20029;-44
2021/04/27 02:37:30;;;;;;;3.33;1.90;;;2.30;97.30;;;;;;5028968;28;20029;-43
2021/04/27 02:39:55;;;;;;;3.72;2.22;;;2.30;97.80;;;;;;5029407;28;20080;-43
2021/04/27 02:42:21;;;;;;;3.30;2.20;;;2.30;98.10;;;;;;5030442;28;20030;-43
2021/04/27 02:44:47;;;;;;;3.95;1.85;;;2.30;97.60;;;;;;5031386;28;20457;-43
2021/04/27 02:47:13;;;;;;;2.10;1.58;;;2.20;97.70;;;;;;5031047;28;20021;-43
2021/04/27 02:49:39;;;;;;;3.70;1.80;;;2.20;97.50;;;;;;5030883;28;20056;-44
2021/04/27 02:52:04;;;;;;;3.17;1.60;;;2.20;97.30;;;;;;5030713;28;20037;-43
2021/04/27 02:54:30;;;;;;;4.05;2.50;;;2.10;97.90;;;;;;5030783;28;20260;-44
2021/04/27 02:56:56;;;;;;;5.95;1.63;;;2.10;98.00;;;;;;5030520;28;20025;-44
2021/04/27 02:59:21;;;;;;;3.13;2.00;;;2.10;98.20;;;;;;5030383;28;20686;-44
2021/04/27 03:01:47;;;;;;;3.50;2.03;;;2.10;99.70;;;;;;5030745;28;20021;-43
2021/04/27 03:04:12;;;;;;;2.70;1.60;;;2.00;98.20;;;;;;5030784;28;20021;-44
2021/04/27 03:06:38;;;;;;;4.32;1.70;;;2.00;99.70;;;;;;5030775;28;20048;-44
2021/04/27 03:09:04;;;;;;;6.55;1.83;;;2.00;99.90;;;;;;5028485;28;20099;-44
2021/04/27 03:11:29;;;;;;;2.40;1.75;;;1.90;99.90;;;;;;5031013;28;20033;-44
2021/04/27 03:13:56;;;;;;;2.78;1.75;;;1.90;99.90;;;;;;5030363;28;20025;-44
2021/04/27 03:16:22;;;;;;;2.45;1.70;;;1.90;99.60;;;;;;5030005;28;20033;-45
2021/04/27 03:18:48;;;;;;;3.00;1.92;;;1.90;99.70;;;;;;5028871;28;20033;-44
2021/04/27 03:21:13;;;;;;;7.55;1.80;;;1.90;99.90;;;;;;5029404;28;20026;-44
2021/04/27 03:23:39;;;;;;;7.18;2.17;;;1.90;99.90;;;;;;5030479;28;20025;-45
2021/04/27 03:26:04;;;;;;;5.10;2.65;;;1.80;99.90;;;;;;5030716;28;20028;-44
2021/04/27 03:28:30;;;;;;;2.22;1.60;;;1.80;99.90;;;;;;5029993;28;20029;-44
2021/04/27 03:30:56;;;;;;;5.18;2.05;;;1.80;99.90;;;;;;5028420;28;20042;-44
2021/04/27 03:33:22;;;;;;;4.50;2.13;;;1.70;99.90;;;;;;5030536;28;20025;-44
2021/04/27 03:35:47;;;;;;;7.80;2.30;;;1.70;99.90;;;;;;5030025;28;20060;-43
2021/04/27 03:38:13;;;;;;;2.03;1.83;;;1.70;99.90;;;;;;5028610;28;20061;-46
2021/04/27 03:40:40;;;;;;;3.17;1.90;;;1.70;99.90;;;;;;5030485;28;20057;-44
2021/04/27 03:43:06;;;;;;;4.40;1.70;;;1.60;99.90;;;;;;5010712;28;20032;-45
2021/04/27 03:45:46;;;;;;;3.70;2.33;;;1.60;99.90;;;;;;5021554;28;20391;-44
2021/04/27 03:48:13;;;;;;;;;;;1.50;99.90;;;;;;5029312;28;20033;-44
2021/04/27 03:50:40;;;;;;;3.58;1.98;;;1.50;99.90;;;;;;5030391;28;19936;-44
2021/04/27 03:53:06;;;;;;;4.35;2.05;;;1.50;99.90;;;;;;5030111;28;20028;-44
2021/04/27 03:55:32;;;;;;;13.25;2.28;;;1.50;99.90;;;;;;5029215;28;20025;-44
2021/04/27 03:57:58;;;;;;;6.38;2.92;;;1.40;99.90;;;;;;5029727;28;20111;-43
2021/04/27 04:00:24;;;;;;;2.47;1.75;;;1.40;99.90;;;;;;5030159;28;20614;-43
2021/04/27 04:02:49;;;;;;;5.13;2.40;;;1.40;99.90;;;;;;5028953;28;20029;-43
2021/04/27 04:05:15;;;;;;;5.03;1.80;;;1.40;99.90;;;;;;5029779;28;20530;-44
2021/04/27 04:07:41;;;;;;;7.57;2.30;;;1.40;99.90;;;;;;5029507;28;20033;-46
2021/04/27 04:10:09;;;;;;;6.03;2.22;;;1.40;99.90;;;;;;5028384;28;20033;-44
2021/04/27 04:12:37;;;;;;;4.82;2.25;;;1.40;99.90;;;;;;5029915;28;20367;-43
2021/04/27 04:15:08;;;;;;;5.35;1.98;;;1.50;99.90;;;;;;5028674;28;20021;-43
2021/04/27 04:17:34;;;;;;;4.72;2.13;;;1.50;99.90;;;;;;5028652;28;20087;-45
2021/04/27 04:20:00;;;;;;;2.95;1.95;;;1.40;99.90;;;;;;5030264;28;20061;-44
2021/04/27 04:22:26;;;;;;;6.47;2.33;;;1.40;99.90;;;;;;5029243;28;20083;-46
2021/04/27 04:24:51;;;;;;;2.33;1.75;;;1.40;99.90;;;;;;5029986;28;20033;-44
2021/04/27 04:27:17;;;;;;;5.82;2.22;;;1.40;99.90;;;;;;5028848;28;20041;-44
2021/04/27 04:29:42;;;;;;;5.47;2.30;;;1.40;99.90;;;;;;5029678;28;20064;-43
2021/04/27 04:32:13;;;;;;;4.03;1.83;;;1.40;99.90;;;;;;5029146;28;20467;-44
2021/04/27 04:34:39;;;;;;;2.92;2.25;;;1.40;99.90;;;;;;5029756;28;20025;-45
2021/04/27 04:37:05;;;;;;;5.60;2.10;;;1.50;99.90;;;;;;5029679;28;20128;-43
2021/04/27 04:39:30;;;;;;;4.00;2.83;;;1.40;99.90;;;;;;5028654;28;20217;-44
2021/04/27 04:41:56;;;;;;;6.03;2.47;;;1.40;99.90;;;;;;5029672;28;20399;-44
2021/04/27 04:44:21;;;;;;;5.32;2.75;;;1.50;99.90;;;;;;5029774;28;20033;-43
2021/04/27 04:46:47;;;;;;;6.60;2.38;;;1.50;99.90;;;;;;5028778;28;20026;-43
2021/04/27 04:49:13;;;;;;;4.90;2.22;;;1.50;99.90;;;;;;5029011;28;20036;-43
2021/04/27 04:51:39;;;;;;;5.15;2.50;;;1.40;99.90;;;;;;5029917;28;20383;-43
2021/04/27 04:54:05;;;;;;;6.75;2.28;;;1.50;99.90;;;;;;5028560;28;20025;-43
2021/04/27 04:56:30;;;;;;;5.55;2.85;;;1.50;99.90;;;;;;5023403;28;20526;-43
2021/04/27 04:58:56;;;;;;;9.93;3.60;;;1.50;99.90;;;;;;5025241;28;20034;-43
2021/04/27 05:01:21;;;;;;;5.03;2.67;;;1.50;99.90;;;;;;5029234;28;20029;-43
2021/04/27 05:03:47;;;;;;;4.10;2.28;;;1.50;99.90;;;;;;5023591;28;20030;-43
2021/04/27 05:06:16;;;;;;;8.52;2.80;;;1.50;99.90;;;;;;5027646;28;20154;-44
2021/04/27 05:08:44;;;;;;;5.85;2.70;;;1.60;99.90;;;;;;5028095;28;20021;-44
2021/04/27 05:11:11;;;;;;;4.50;2.53;;;1.60;99.90;;;;;;5028828;28;20022;-43
2021/04/27 05:13:37;;;;;;;5.18;2.75;;;1.70;99.90;;;;;;5029188;28;20387;-43
2021/04/27 05:16:04;;;;;;;6.35;2.55;;;1.70;99.90;;;;;;5032324;28;20018;-43
2021/04/27 05:18:30;;;;;;;6.10;2.60;;;1.70;99.90;;;;;;5030856;28;20489;-44
2021/04/27 05:20:55;;;;;;;9.85;3.65;;;1.80;99.90;;;;;;5032754;28;20353;-44
2021/04/27 05:23:25;;;;;;;10.07;2.42;;;1.80;99.90;;;;;;5032766;28;20040;-44
2021/04/27 05:25:50;;;;;;;4.90;2.83;;;1.80;99.90;;;;;;5032354;28;20025;-45
2021/04/27 05:28:16;;;;;;;5.90;2.90;;;1.90;99.90;;;;;;5016127;28;20022;-43
2021/04/27 05:30:42;;;;;;;7.55;3.33;;;1.90;99.90;;;;;;5031306;28;20471;-43
2021/04/27 05:33:07;;;;;;;6.57;2.92;;;2.00;99.90;;;;;;5031936;28;20017;-43
2021/04/27 05:35:33;;;;;;;8.13;2.90;;;2.00;99.90;;;;;;5032045;28;20022;-44
2021/04/27 05:37:59;;;;;;;5.93;2.65;;;2.10;99.90;;;;;;5030241;28;20029;-44
2021/04/27 05:40:26;;;;;;;6.18;2.95;;;2.10;99.90;;;;;;5030736;28;20075;-43
2021/04/27 05:42:51;;;;;;;9.73;3.08;;;2.20;99.90;;;;;;5029789;28;20056;-44
2021/04/27 05:45:17;;;;;;;8.02;3.70;;;2.20;99.90;;;;;;5030287;28;20035;-43
2021/04/27 05:47:43;;;;;;;5.95;2.92;;;2.20;99.90;;;;;;5029979;28;20108;-44
2021/04/27 05:50:09;;;;;;;7.53;3.10;;;2.30;99.90;;;;;;5028695;28;20476;-43
2021/04/27 05:52:34;;;;;;;9.95;4.57;;;2.40;99.90;;;;;;5030865;28;20021;-45
2021/04/27 05:55:00;;;;;;;7.45;3.40;;;2.40;99.90;;;;;;5030184;28;20499;-44
2021/04/27 05:57:26;;;;;;;7.75;3.22;;;2.50;99.90;;;;;;5029823;28;20250;-44
2021/04/27 05:59:51;;;;;;;6.00;3.40;;;2.60;99.90;;;;;;5029809;28;20424;-44
2021/04/27 06:02:18;;;;;;;7.97;3.75;;;2.70;99.90;;;;;;5030335;28;20040;-43
2021/04/27 06:04:43;;;;;;;8.98;3.70;;;2.80;99.90;;;;;;5024183;28;20048;-45
2021/04/27 06:07:08;;;;;;;7.60;3.03;;;2.90;99.90;;;;;;5027607;28;20032;-43
2021/04/27 06:09:36;;;;;;;8.73;3.20;;;2.90;99.90;;;;;;5029029;28;20036;-44
2021/04/27 06:12:02;;;;;;;7.63;3.75;;;3.00;99.90;;;;;;5029883;28;20023;-44
2021/04/27 06:14:27;;;;;;;6.72;3.70;;;3.10;99.90;;;;;;5025474;28;20456;-43
2021/04/27 06:16:53;;;;;;;10.45;3.63;;;3.10;99.90;;;;;;5029687;28;20029;-44
2021/04/27 06:19:19;;;;;;;6.90;3.03;;;3.20;99.90;;;;;;5029460;28;20029;-44
2021/04/27 06:21:46;;;;;;;7.93;3.55;;;3.30;99.90;;;;;;5026268;28;20088;-43
2021/04/27 06:24:12;;;;;;;9.07;3.70;;;3.30;99.90;;;;;;5029817;28;20510;-44
2021/04/27 06:26:38;;;;;;;13.60;3.28;;;3.40;99.90;;;;;;5026595;28;20041;-44
2021/04/27 06:29:04;;;;;;;9.90;4.15;;;3.50;99.90;;;;;;5028929;28;20040;-44
2021/04/27 06:31:30;;;;;;;7.22;3.30;;;3.60;99.90;;;;;;5029424;28;20049;-44
2021/04/27 06:33:55;;;;;;;7.38;3.70;;;3.70;99.90;;;;;;5029403;28;20050;-44
2021/04/27 06:36:21;;;;;;;8.65;3.92;;;3.80;99.90;;;;;;5029806;28;20443;-45
2021/04/27 06:38:46;;;;;;;8.88;3.67;;;3.90;99.90;;;;;;5028914;28;20065;-45
2021/04/27 06:41:12;;;;;;;6.20;3.90;;;4.00;99.90;;;;;;5028325;28;20056;-43
2021/04/27 06:43:38;;;;;;;8.70;3.30;;;4.00;99.90;;;;;;5031809;28;20037;-43
2021/04/27 06:46:04;;;;;;;9.77;4.20;;;4.20;99.90;;;;;;5029155;28;20033;-44
2021/04/27 06:48:33;;;;;;;7.63;3.47;;;4.40;99.90;;;;;;5033492;28;20025;-44
2021/04/27 06:50:59;;;;;;;10.18;4.18;;;4.50;99.30;;;;;;5035592;28;20055;-43
2021/04/27 06:53:24;;;;;;;5.28;3.55;;;4.70;97.20;;;;;;5043802;28;20057;-44
2021/04/27 06:55:50;;;;;;;7.97;3.75;;;4.80;97.70;;;;;;5034453;28;20025;-44
2021/04/27 06:58:16;;;;;;;8.05;3.88;;;5.00;96.90;;;;;;5029479;28;20108;-45
2021/04/27 07:00:42;;;;;;;6.88;3.72;;;5.20;95.90;;;;;;5030288;28;20074;-44
2021/04/27 07:03:08;;;;;;;8.75;3.78;;;5.20;96.30;;;;;;5028692;28;20033;-44
2021/04/27 07:05:34;;;;;;;7.63;4.38;;;5.30;96.30;;;;;;5028967;28;20474;-44
2021/04/27 07:07:59;;;;;;;10.18;4.75;;;5.40;94.50;;;;;;5027641;28;20025;-44
2021/04/27 07:10:25;;;;;;;7.65;3.92;;;5.60;94.70;;;;;;5027864;28;20037;-46
2021/04/27 07:12:51;;;;;;;8.23;3.45;;;5.70;93.50;;;;;;5028891;28;20029;-44
2021/04/27 07:15:17;;;;;;;9.30;3.75;;;5.90;92.10;;;;;;5029645;28;20030;-45
2021/04/27 07:17:43;;;;;;;7.22;3.90;;;6.00;92.40;;;;;;5029200;28;20033;-44
2021/04/27 07:20:10;;;;;;;5.10;3.42;;;6.20;91.30;;;;;;5029115;28;20044;-45
2021/04/27 07:22:35;;;;;;;7.68;3.72;;;6.30;91.10;;;;;;5029467;28;20511;-45
2021/04/27 07:25:04;;;;;;;6.38;3.17;;;6.50;90.00;;;;;;5028259;28;20041;-45
2021/04/27 07:27:29;;;;;;;7.03;3.60;;;6.50;90.10;;;;;;5035184;28;20029;-47
2021/04/27 07:29:55;;;;;;;5.40;3.50;;;6.70;87.60;;;;;;5029975;28;20021;-47
2021/04/27 07:32:21;;;;;;;5.40;3.22;;;6.90;86.60;;;;;;5028113;28;20033;-47
2021/04/27 07:34:46;;;;;;;6.57;3.63;;;7.00;82.70;;;;;;5028913;28;20105;-45
2021/04/27 07:37:13;;;;;;;10.02;3.78;;;7.20;82.50;;;;;;5027019;28;20018;-45
2021/04/27 07:39:39;;;;;;;7.40;3.15;;;7.30;78.70;;;;;;5027770;28;20140;-45
2021/04/27 07:42:05;;;;;;;6.20;3.58;;;7.50;78.00;;;;;;5024574;28;20585;-44
2021/04/27 07:44:31;;;;;;;5.57;3.50;;;7.70;78.80;;;;;;5027717;28;20090;-45
2021/04/27 07:46:56;;;;;;;9.90;3.47;;;7.90;75.80;;;;;;5027839;28;20025;-44
2021/04/27 07:49:22;;;;;;;15.88;4.20;;;8.20;72.00;;;;;;5026188;28;20435;-45
2021/04/27 07:51:47;;;;;;;7.45;3.58;;;8.40;71.50;;;;;;5029560;28;20049;-44
2021/04/27 07:54:13;;;;;;;8.73;4.35;;;8.60;70.80;;;;;;5024301;28;20459;-45
2021/04/27 07:56:38;;;;;;;8.63;3.53;;;8.80;74.80;;;;;;5019302;28;20045;-45
2021/04/27 07:59:05;;;;;;;7.15;3.90;;;9.20;68.40;;;;;;5029742;28;20040;-44
2021/04/27 08:01:33;;;;;;;6.75;2.97;;;9.60;63.00;;;;;;5028434;28;20399;-44
2021/04/27 08:03:59;;;;;;;7.40;4.22;;;9.80;62.90;;;;;;5026819;28;20115;-44
2021/04/27 08:06:25;;;;;;;5.47;3.28;;;10.30;62.30;;;;;;5030218;28;20103;-45
2021/04/27 08:08:51;;;;;;;4.80;3.20;;;11.00;60.10;;;;;;5029537;28;20728;-45
2021/04/27 08:11:17;;;;;;;3.72;2.75;;;11.80;56.90;;;;;;5030674;28;20121;-48
2021/04/27 08:13:43;;;;;;;8.25;3.35;;;12.90;53.30;;;;;;5031042;28;20025;-46
2021/04/27 08:16:09;;;;;;;9.65;3.13;;;14.70;49.40;;;;;;5030325;28;20029;-44
2021/04/27 08:18:36;;;;;;;5.63;2.80;;;16.50;44.20;;;;;;5026791;28;20029;-45
2021/04/27 08:21:07;;;;;;;3.30;2.40;;;17.70;41.00;;;;;;5028677;28;20022;-49
2021/04/27 08:23:35;;;;;;;3.60;2.25;;;19.20;36.10;;;;;;5028410;28;20098;-46
2021/04/27 08:26:01;;;;;;;3.42;2.50;;;19.90;33.80;;;;;;5028674;28;20473;-47
2021/04/27 08:28:26;;;;;;;2.13;1.92;;;20.90;32.90;;;;;;5029053;28;20105;-47
2021/04/27 08:30:53;;;;;;;3.72;2.00;;;21.20;32.50;;;;;;5028182;28;20060;-46
2021/04/27 08:33:19;;;;;;;4.30;2.10;;;22.90;30.30;;;;;;5025183;28;20068;-47
2021/04/27 08:35:45;;;;;;;4.65;2.17;;;24.00;29.30;;;;;;5026550;28;20056;-46
2021/04/27 08:38:10;;;;;;;3.97;1.85;;;24.30;28.50;;;;;;5029805;28;20463;-47
2021/04/27 08:40:36;;;;;;;2.78;1.98;;;25.00;27.20;;;;;;5027442;28;20041;-48
2021/04/27 08:43:02;;;;;;;5.07;1.83;;;25.40;27.00;;;;;;5027047;28;20053;-46
2021/04/27 08:45:28;;;;;;;3.30;1.70;;;25.70;27.20;;;;;;5027161;28;20033;-47
2021/04/27 08:47:54;;;;;;;3.35;2.03;;;25.60;26.70;;;;;;5024671;28;20105;-46
2021/04/27 08:50:19;;;;;;;4.40;2.08;;;25.70;27.10;;;;;;5033338;28;20025;-47
2021/04/27 08:52:46;;;;;;;6.93;2.10;;;26.90;26.20;;;;;;5033974;28;20124;-46
2021/04/27 08:55:13;;;;;;;5.47;2.20;;;27.10;25.60;;;;;;5040796;28;20414;-48
2021/04/27 08:57:39;;;;;;;3.30;2.13;;;26.40;24.90;;;;;;5032337;28;20033;-46
2021/04/27 09:00:09;;;;;;;4.20;2.22;;;25.40;26.30;;;;;;5028077;28;20398;-47
2021/04/27 09:02:36;;;;;;;4.53;2.28;;;25.10;26.60;;;;;;5030871;28;20399;-46
2021/04/27 09:05:02;;;;;;;3.28;2.22;;;26.20;25.80;;;;;;5029797;28;20037;-46
2021/04/27 09:07:28;;;;;;;2.50;1.85;;;25.10;26.90;;;;;;5030501;28;20063;-46
2021/04/27 09:09:57;;;;;;;4.32;1.75;;;25.10;25.80;;;;;;5043549;28;20025;-47
2021/04/27 09:12:25;;;;;;;5.10;2.30;;;25.60;26.00;;;;;;5043467;28;20079;-46
2021/04/27 09:14:51;;;;;;;2.13;1.73;;;25.00;25.10;;;;;;5031055;28;20510;-46
2021/04/27 09:17:17;;;;;;;3.97;2.13;;;24.70;25.90;;;;;;5030636;28;20073;-48
2021/04/27 09:19:49;;;;;;;2.17;1.92;;;24.70;25.20;;;;;;5030586;28;20026;-48
2021/04/27 09:22:19;;;;;;;4.05;2.00;;;24.70;26.20;;;;;;5039705;28;20033;-48
2021/04/27 09:25:02;;;;;;;3.53;2.05;;;25.30;26.70;;;;;;5036778;28;20026;-45
2021/04/27 09:27:47;;;;;;;3.03;2.40;;;26.10;26.50;;;;;;5018296;28;20365;-47
2021/04/27 09:30:18;;;;;;;3.45;2.00;;;25.50;25.20;;;;;;5036046;28;20055;-48
2021/04/27 09:32:51;;;;;;;3.80;2.17;;;25.60;26.00;;;;;;5043428;28;20021;-46
2021/04/27 09:35:31;;;;;;;5.90;1.95;;;25.50;26.10;;;;;;5028580;28;20025;-47
2021/04/27 09:38:30;;;;;;;8.93;1.75;;;26.70;25.30;;;;;;5031810;28;20030;-48
2021/04/27 09:41:00;;;;;;;7.13;2.00;;;27.20;26.00;;;;;;5028931;28;20029;-46
2021/04/27 09:43:38;;;;;;;3.70;2.00;;;24.90;25.90;;;;;;5032230;28;20029;-47
2021/04/27 09:46:10;;;;;;;3.80;1.80;;;25.20;25.50;;;;;;5031437;28;20519;-46
2021/04/27 09:48:43;;;;;;;4.35;1.73;;;24.90;25.60;;;;;;5030484;28;20475;-46
2021/04/27 09:51:12;;;;;;;2.65;1.77;;;25.30;26.10;;;;;;5031343;28;20045;-49
2021/04/27 09:53:56;;;;;;;2.63;1.80;;;26.30;26.00;;;;;;5052209;28;20441;-46
2021/04/27 09:56:41;;;;;;;5.18;2.30;;;27.00;26.20;;;;;;5025187;28;20026;-46
2021/04/27 09:59:11;;;;;;;4.75;2.25;;;27.70;24.50;;;;;;5029975;28;20025;-46
2021/04/27 10:01:38;;;;;;;3.60;2.30;;;26.30;24.10;;;;;;5029183;28;20037;-46
2021/04/27 10:04:04;;;;;;;3.38;2.00;;;26.60;25.80;;;;;;5032274;28;20037;-46
2021/04/27 10:06:30;;;;;;;3.00;2.00;;;26.30;25.30;;;;;;5031189;28;20032;-49
2021/04/27 10:08:57;;;;;;;2.67;2.15;;;26.90;24.80;;;;;;5031045;28;20104;-46
2021/04/27 10:11:28;;;;;;;3.55;2.20;;;27.00;25.60;;;;;;5029820;28;20080;-47
2021/04/27 10:13:55;;;;;;;3.40;2.20;;;26.50;25.20;;;;;;5031932;28;20041;-45
2021/04/27 10:16:22;;;;;;;3.15;2.03;;;26.30;25.80;;;;;;5029809;28;20029;-45
2021/04/27 10:18:48;;;;;;;5.35;2.80;;;25.70;24.70;;;;;;5028860;28;20025;-45
2021/04/27 10:21:14;;;;;;;2.88;2.30;;;25.10;26.90;;;;;;5029077;28;20049;-45
2021/04/27 10:23:41;;;;;;;5.78;2.55;;;25.30;25.70;;;;;;5030341;28;20423;-45
2021/04/27 10:26:08;;;;;;;2.83;2.00;;;24.60;26.40;;;;;;5029428;28;20025;-47
2021/04/27 10:28:55;;;;;;;3.55;2.35;;;25.00;25.80;;;;;;5028587;28;20487;-45
2021/04/27 10:31:21;;;;;;;4.25;2.45;;;24.70;25.90;;;;;;5029189;28;20490;-45
2021/04/27 10:34:08;;;;;;;3.03;2.50;;;24.80;26.60;;;;;;5029200;28;20109;-48
2021/04/27 10:36:37;;;;;;;4.63;2.42;;;25.80;26.30;;;;;;5027012;28;20037;-51
2021/04/27 10:39:08;;;;;;;4.77;2.30;;;26.70;26.80;;;;;;5028638;28;20021;-46
2021/04/27 10:41:48;;;;;;;6.75;2.38;;;27.20;26.00;;;;;;5028757;28;20268;-45
2021/04/27 10:44:15;;;;;;;2.70;2.20;;;27.90;24.80;;;;;;5028780;28;20109;-47
2021/04/27 10:46:40;;;;;;;3.97;2.40;;;28.30;25.10;;;;;;5028098;28;20079;-45
2021/04/27 10:49:23;;;;;;;4.05;2.22;;;29.30;25.00;;;;;;5028260;28;20052;-48
2021/04/27 10:51:50;;;;;;;8.95;2.50;;;29.10;25.80;;;;;;5027596;28;20040;-46
2021/04/27 10:54:15;;;;;;;3.33;2.17;;;29.10;24.70;;;;;;5026947;28;20569;-46
2021/04/27 10:56:48;;;;;;;4.60;2.13;;;29.00;24.80;;;;;;5027129;28;20048;-46
2021/04/27 10:59:25;;;;;;;6.97;2.45;;;28.80;24.50;;;;;;5025694;28;20025;-45
2021/04/27 11:02:17;;;;;;;4.25;2.30;;;28.80;24.50;;;;;;5024847;28;20056;-46
2021/04/27 11:04:45;;;;;;;3.30;2.33;;;28.90;23.00;;;;;;5025586;28;20395;-45
2021/04/27 11:07:12;;;;;;;3.00;2.05;;;26.80;24.00;;;;;;5025971;28;20025;-46
2021/04/27 11:09:38;;;;;;;3.10;1.98;;;27.00;24.20;;;;;;5026918;28;20469;-45
2021/04/27 11:12:28;;;;;;;3.00;2.13;;;27.60;25.10;;;;;;5027631;28;20375;-46
2021/04/27 11:15:06;;;;;;;5.25;2.05;;;27.70;25.00;;;;;;5025504;28;20398;-45
2021/04/27 11:17:37;;;;;;;4.97;1.90;;;29.00;23.40;;;;;;5024792;28;20083;-45
2021/04/27 11:20:09;;;;;;;4.43;2.22;;;28.70;24.50;;;;;;5026911;28;20173;-46
2021/04/27 11:22:36;;;;;;;5.03;2.58;;;28.60;24.00;;;;;;5026094;28;20280;-46
2021/04/27 11:25:04;;;;;;;3.47;1.73;;;28.50;24.10;;;;;;5024407;28;20026;-46
2021/04/27 11:27:38;;;;;;;6.30;2.00;;;27.90;25.30;;;;;;5025020;28;20551;-53
2021/04/27 11:30:10;;;;;;;3.55;2.63;;;27.90;23.80;;;;;;5026142;28;20037;-52
2021/04/27 11:32:37;;;;;;;4.15;2.47;;;27.40;25.00;;;;;;5027280;28;20380;-53
2021/04/27 11:35:16;;;;;;;3.38;2.33;;;28.10;23.60;;;;;;5027156;28;20025;-53
2021/04/27 11:37:59;;;;;;;3.95;1.85;;;28.30;23.60;;;;;;5023805;28;20036;-52
2021/04/27 11:40:26;;;;;;;2.22;1.92;;;28.20;23.40;;;;;;5025524;28;20483;-52
2021/04/27 11:42:53;;;;;;;5.00;1.90;;;27.70;24.50;;;;;;5027067;28;20048;-53
2021/04/27 11:45:19;;;;;;;5.00;2.38;;;27.30;24.00;;;;;;5026899;28;20057;-51
2021/04/27 11:47:45;;;;;;;4.90;2.13;;;27.90;24.10;;;;;;5027005;28;20100;-53
2021/04/27 11:50:22;;;;;;;2.22;2.03;;;27.90;24.20;;;;;;5025588;28;20197;-52
2021/04/27 11:53:03;;;;;;;5.30;2.30;;;26.50;23.40;;;;;;5025346;28;20029;-52
2021/04/27 11:55:51;;;;;;;6.93;2.88;;;25.90;24.20;;;;;;5025214;28;20245;-52
2021/04/27 11:58:19;;;;;;;6.32;2.20;;;25.60;23.90;;;;;;5024696;28;20033;-52
2021/04/27 12:00:56;;;;;;;2.97;1.98;;;25.80;26.10;;;;;;5025780;28;20443;-52
2021/04/27 12:03:42;;;;;;;4.03;2.33;;;25.00;24.60;;;;;;5027539;28;20056;-52
2021/04/27 12:06:18;;;;;;;2.67;2.03;;;24.40;25.70;;;;;;5025422;28;20025;-51
2021/04/27 12:08:48;;;;;;;6.07;2.55;;;23.60;25.50;;;;;;5024539;28;20026;-54
2021/04/27 12:11:26;;;;;;;4.43;2.20;;;21.20;26.50;;;;;;5025696;28;20049;-52
2021/04/27 12:13:57;;;;;;;6.22;2.20;;;21.00;29.50;;;;;;5026293;28;20048;-51
2021/04/27 12:16:32;;;;;;;11.13;2.53;;;21.10;30.20;;;;;;5025877;28;20526;-51
2021/04/27 12:19:26;;;;;;;5.47;2.50;;;21.10;29.00;;;;;;5024677;28;20040;-51
2021/04/27 12:22:02;;;;;;;7.97;2.30;;;21.20;28.10;;;;;;5027139;28;20032;-52
2021/04/27 12:24:38;;;;;;;6.47;2.28;;;20.30;28.30;;;;;;5027611;28;20030;-51
2021/04/27 12:27:10;;;;;;;4.43;2.40;;;20.50;28.40;;;;;;5029858;28;20029;-50
2021/04/27 12:29:57;;;;;;;4.75;1.83;;;19.90;28.50;;;;;;5030548;28;20072;-51
2021/04/27 12:32:28;;;;;;;6.63;2.35;;;20.10;29.40;;;;;;5028748;28;20428;-50
2021/04/27 12:35:19;;;;;;;4.93;2.58;;;20.30;28.70;;;;;;5031498;28;20026;-49
2021/04/27 12:37:57;;;;;;;4.53;2.22;;;20.40;30.10;;;;;;5032484;28;20029;-52
2021/04/27 12:40:24;;;;;;;6.90;2.40;;;20.40;29.50;;;;;;5030568;28;20037;-51
2021/04/27 12:43:11;;;;;;;3.65;2.38;;;20.50;30.70;;;;;;5031743;28;20036;-52
2021/04/27 12:45:47;;;;;;;5.57;2.60;;;20.50;28.80;;;;;;5029814;28;20037;-51
2021/04/27 12:48:14;;;;;;;4.50;1.90;;;20.00;29.00;;;;;;5028960;28;20025;-51
2021/04/27 12:50:49;;;;;;;3.90;2.33;;;19.90;28.50;;;;;;5027937;28;20468;-50
2021/04/27 12:53:15;;;;;;;4.30;2.20;;;19.50;30.10;;;;;;5031168;28;20080;-52
2021/04/27 12:55:52;;;;;;;3.13;2.13;;;19.70;29.40;;;;;;5029497;28;20057;-51
2021/04/27 12:58:25;;;;;;;4.55;2.38;;;19.20;28.70;;;;;;5030626;28;20037;-51
2021/04/27 13:00:57;;;;;;;7.60;2.35;;;19.40;30.40;;;;;;5032299;28;20506;-52